createdAt,value
2022-12-12T00:05:02.757Z,1.50
2022-12-12T00:10:06.782Z,1.70
2022-12-12T00:15:11.358Z,1.40
2022-12-12T00:20:15.045Z,1.80
2022-12-12T00:25:18.455Z,2.40
2022-12-12T00:30:22.074Z,2.50
2022-12-12T00:35:26.002Z,2.50
2022-12-12T00:40:29.310Z,2.60
2022-12-12T00:45:32.723Z,1.40
2022-12-12T00:50:36.958Z,2.80
2022-12-12T00:55:40.473Z,2.30
2022-12-12T01:00:44.092Z,2.10
2022-12-12T01:05:47.914Z,2.10
2022-12-12T01:10:51.224Z,2.20
2022-12-12T01:15:55.144Z,1.60
2022-12-12T01:20:58.559Z,2.50
2022-12-12T01:26:07.115Z,2.50
2022-12-12T01:31:11.087Z,2.20
2022-12-12T01:36:16.882Z,2.90
2022-12-12T01:41:21.224Z,1.30
2022-12-12T01:51:30.307Z,2.60
2022-12-12T01:56:35.051Z,2.40
2022-12-12T02:01:39.730Z,2.20
2022-12-12T02:06:44.227Z,2.10
2022-12-12T02:11:50.509Z,2.10
2022-12-12T02:17:00.885Z,1.10
2022-12-12T02:22:09.316Z,2.10
2022-12-12T02:27:35.978Z,1.10
2022-12-12T02:33:20.967Z,1.60
2022-12-12T02:44:20.217Z,1.70
2022-12-12T02:49:32.132Z,2.20
2022-12-12T02:54:35.745Z,1.50
2022-12-12T02:59:42.442Z,1.50
2022-12-12T03:05:16.879Z,1.70
2022-12-12T03:10:51.831Z,1.50
2022-12-12T03:16:28.680Z,1.40
2022-12-12T03:21:37.977Z,1.10
2022-12-12T03:27:05.149Z,1.40
2022-12-12T03:32:15.660Z,1.20
2022-12-12T03:37:31.845Z,1.30
2022-12-12T03:42:47.746Z,1.50
2022-12-12T03:47:56.878Z,1.10
2022-12-12T03:53:09.727Z,1.60
2022-12-12T03:58:30.958Z,0.90
2022-12-12T04:03:56.904Z,1.30
2022-12-12T04:09:20.998Z,1.20
2022-12-12T04:14:33.422Z,1.90
2022-12-12T04:20:06.680Z,1.80
2022-12-12T04:25:32.782Z,1.30
2022-12-12T04:30:37.733Z,1.70
2022-12-12T04:35:49.641Z,2.30
2022-12-12T04:40:59.812Z,1.90
2022-12-12T04:46:24.938Z,1.80
2022-12-12T04:51:44.736Z,2.10
2022-12-12T04:56:54.084Z,1.30
2022-12-12T05:02:15.951Z,1.20
2022-12-12T05:07:29.586Z,1.50
2022-12-12T05:12:41.216Z,1.10
2022-12-12T05:18:01.806Z,1.80
2022-12-12T05:23:05.216Z,2.00
2022-12-12T05:28:08.629Z,2.00
2022-12-12T05:33:13.374Z,2.70
2022-12-12T05:38:16.789Z,2.90
2022-12-12T05:43:20.136Z,2.60
2022-12-12T05:48:24.604Z,2.50
2022-12-12T05:53:28.870Z,2.40
2022-12-12T05:58:32.485Z,2.10
2022-12-12T06:03:35.986Z,2.50
2022-12-12T06:08:39.710Z,2.30
2022-12-12T06:13:43.441Z,1.90
2022-12-12T06:18:54.925Z,2.40
2022-12-12T06:23:58.283Z,2.40
2022-12-12T06:29:03.304Z,2.60
2022-12-12T06:34:06.719Z,2.00
2022-12-12T06:39:10.448Z,2.50
2022-12-12T06:44:13.852Z,2.30
2022-12-12T06:49:17.161Z,1.80
2022-12-12T06:54:20.473Z,1.20
2022-12-12T06:59:23.991Z,2.70
2022-12-12T07:04:27.400Z,2.10
2022-12-12T07:09:30.925Z,2.30
2022-12-12T07:14:34.329Z,2.30
2022-12-12T07:19:37.843Z,2.30
2022-12-12T07:24:41.154Z,1.80
2022-12-12T07:29:45.084Z,2.00
2022-12-12T07:34:48.395Z,2.80
2022-12-12T07:39:51.707Z,2.10
2022-12-12T07:44:55.117Z,1.60
2022-12-12T07:49:58.428Z,2.10
2022-12-12T07:55:02.863Z,2.00
2022-12-12T08:00:08.680Z,1.60
2022-12-12T08:05:12.279Z,1.50
2022-12-12T08:10:16.070Z,1.30
2022-12-12T08:15:19.287Z,2.00
2022-12-12T08:20:23.237Z,2.30
2022-12-12T08:25:26.514Z,1.60
2022-12-12T08:30:29.930Z,2.00
2022-12-12T08:35:33.174Z,3.10
2022-12-12T08:40:36.656Z,2.80
2022-12-12T08:45:40.782Z,2.40
2022-12-12T08:50:44.093Z,1.70
2022-12-12T08:55:47.608Z,1.90
2022-12-12T09:00:51.122Z,1.00
2022-12-12T09:05:54.637Z,1.00
2022-12-12T09:10:58.262Z,2.00
2022-12-12T09:16:01.834Z,1.60
2022-12-12T09:21:05.700Z,1.10
2022-12-12T09:26:10.273Z,1.10
2022-12-12T09:31:14.005Z,0.90
2022-12-12T09:36:17.573Z,0.80
2022-12-12T09:41:27.615Z,0.50
2022-12-12T09:46:40.068Z,1.00
2022-12-12T09:51:48.295Z,2.60
2022-12-12T09:57:04.203Z,1.20
2022-12-12T10:02:52.258Z,1.30
2022-12-12T10:08:20.017Z,1.90
2022-12-12T10:13:31.341Z,1.40
2022-12-12T10:18:43.767Z,1.60
2022-12-12T10:23:56.600Z,1.10
2022-12-12T10:29:15.275Z,0.90
2022-12-12T10:34:24.214Z,1.10
2022-12-12T10:39:33.566Z,1.00
2022-12-12T10:45:07.705Z,1.50
2022-12-12T10:50:13.411Z,0.90
2022-12-12T10:55:25.598Z,0.80
2022-12-12T11:00:40.618Z,0.70
2022-12-12T11:05:45.414Z,1.00
2022-12-12T11:11:05.828Z,0.70
2022-12-12T11:16:15.754Z,0.70
2022-12-12T11:21:20.947Z,0.60
2022-12-12T11:26:27.054Z,0.40
2022-12-12T11:31:34.568Z,0.50
2022-12-12T11:36:40.970Z,0.60
2022-12-12T11:42:05.522Z,0.70
2022-12-12T11:47:29.933Z,0.40
2022-12-12T11:52:33.853Z,0.50
2022-12-12T11:58:03.909Z,0.40
2022-12-12T12:03:23.006Z,0.30
2022-12-12T12:08:44.405Z,0.30
2022-12-12T12:14:03.077Z,0.20
2022-12-12T12:19:26.868Z,0.40
2022-12-12T12:24:48.817Z,0.20
2022-12-12T12:29:54.789Z,0.60
2022-12-12T12:35:07.522Z,1.10
2022-12-12T12:40:14.110Z,2.90
2022-12-12T12:45:26.839Z,1.00
2022-12-12T12:50:37.420Z,0.80
2022-12-12T12:55:49.743Z,0.80
2022-12-12T13:01:11.906Z,0.50
2022-12-12T13:06:23.601Z,0.80
2022-12-12T13:11:33.568Z,1.20
2022-12-12T13:16:36.881Z,0.80
2022-12-12T13:21:51.046Z,0.40
2022-12-12T13:27:15.452Z,0.20
2022-12-12T13:32:27.771Z,0.40
2022-12-12T13:37:36.659Z,0.50
2022-12-12T13:42:53.189Z,0.40
2022-12-12T13:47:56.446Z,0.40
2022-12-12T13:53:08.868Z,0.60
2022-12-12T13:58:32.145Z,0.30
2022-12-12T14:03:35.663Z,0.50
2022-12-12T14:08:48.722Z,0.80
2022-12-12T14:14:02.044Z,0.60
2022-12-12T14:19:23.993Z,0.40
2022-12-12T14:24:33.653Z,0.60
2022-12-12T14:29:42.947Z,0.80
2022-12-12T14:34:55.433Z,0.80
2022-12-12T14:40:04.781Z,0.60
2022-12-12T14:45:31.438Z,0.60
2022-12-12T14:50:35.161Z,0.40
2022-12-12T14:55:51.474Z,0.20
2022-12-12T15:00:58.492Z,0.30
2022-12-12T15:06:21.238Z,0.60
2022-12-12T15:11:30.898Z,0.40
2022-12-12T15:16:48.285Z,0.20
2022-12-12T15:21:51.960Z,0.20
2022-12-12T15:26:59.673Z,0.30
2022-12-12T15:32:07.323Z,0.50
2022-12-12T15:37:26.437Z,0.50
2022-12-12T15:42:30.807Z,0.50
2022-12-12T15:47:34.213Z,0.80
2022-12-12T15:52:37.733Z,1.70
2022-12-12T15:57:50.264Z,1.70
2022-12-12T16:03:16.305Z,1.40
2022-12-12T16:08:32.025Z,0.80
2022-12-12T16:13:59.686Z,1.80
2022-12-12T16:19:05.148Z,2.60
2022-12-12T16:24:20.109Z,4.80
2022-12-12T16:29:23.951Z,3.10
2022-12-12T16:34:27.467Z,2.30
2022-12-12T16:39:31.389Z,1.50
2022-12-12T16:44:34.702Z,1.00
2022-12-12T16:49:38.733Z,1.70
2022-12-12T16:54:46.921Z,3.10
2022-12-12T16:59:55.487Z,2.60
2022-12-12T17:05:00.391Z,1.70
2022-12-12T17:10:04.158Z,1.20
2022-12-12T17:15:08.490Z,0.90
2022-12-12T17:25:20.710Z,5.10
2022-12-12T17:30:24.772Z,3.20
2022-12-12T17:35:28.800Z,3.10
2022-12-12T17:40:32.137Z,4.90
2022-12-12T17:45:35.614Z,3.30
2022-12-12T17:50:41.842Z,3.70
2022-12-12T17:55:51.531Z,2.90
2022-12-12T18:00:58.920Z,2.20
2022-12-12T18:06:04.535Z,1.70
2022-12-12T18:11:10.041Z,2.40
2022-12-12T18:16:13.604Z,2.20
2022-12-12T18:21:51.310Z,1.60
2022-12-12T18:26:44.647Z,1.50
2022-12-12T18:31:48.063Z,3.50
2022-12-12T18:36:51.537Z,2.40
2022-12-12T18:41:55.562Z,1.40
2022-12-12T18:46:58.772Z,1.50
2022-12-12T18:52:02.183Z,1.50
2022-12-12T18:57:05.599Z,2.40
2022-12-12T19:02:12.817Z,2.70
2022-12-12T19:07:18.593Z,2.70
2022-12-12T19:12:21.779Z,3.50
2022-12-12T19:17:26.763Z,2.30
2022-12-12T19:22:46.721Z,3.10
2022-12-12T19:27:50.753Z,2.50
2022-12-12T19:32:54.781Z,3.20
2022-12-12T19:37:58.705Z,1.90
2022-12-12T19:43:03.589Z,3.10
2022-12-12T19:48:07.812Z,3.50
2022-12-12T19:53:12.428Z,2.60
2022-12-12T19:58:15.738Z,2.00
2022-12-12T20:03:18.948Z,2.60
2022-12-12T20:08:22.506Z,2.30
2022-12-12T20:13:25.877Z,2.40
2022-12-12T20:18:30.012Z,2.80
2022-12-12T20:23:41.187Z,2.80
2022-12-12T20:28:49.221Z,2.80
2022-12-12T20:33:55.948Z,2.70
2022-12-12T20:39:01.677Z,2.40
2022-12-12T20:44:06.620Z,2.60
2022-12-12T20:49:13.225Z,2.60
2022-12-12T20:54:17.551Z,2.70
2022-12-12T20:59:20.859Z,1.70
2022-12-12T21:04:24.492Z,3.10
2022-12-12T21:09:28.219Z,2.60
2022-12-12T21:14:33.351Z,1.30
2022-12-12T21:19:36.765Z,2.30
2022-12-12T21:24:40.076Z,1.60
2022-12-12T21:29:43.489Z,2.60
2022-12-12T21:34:46.799Z,1.70
2022-12-12T21:39:52.692Z,1.60
2022-12-12T21:44:55.980Z,1.20
2022-12-12T21:49:59.395Z,1.70
2022-12-12T21:55:03.217Z,2.60
2022-12-12T22:00:07.448Z,2.30
2022-12-12T22:05:10.824Z,2.00
2022-12-12T22:10:14.276Z,2.70
2022-12-12T22:15:17.794Z,1.50
2022-12-12T22:20:21.410Z,1.80
2022-12-12T22:25:24.823Z,2.10
2022-12-12T22:30:28.132Z,1.50
2022-12-12T22:35:31.546Z,1.60
2022-12-12T22:40:34.960Z,1.80
2022-12-12T22:45:38.475Z,1.70
2022-12-12T22:50:41.785Z,1.30
2022-12-12T22:55:45.197Z,1.60
2022-12-12T23:00:49.023Z,1.90
2022-12-12T23:05:52.365Z,1.00
2022-12-12T23:10:55.746Z,1.20
2022-12-12T23:15:59.177Z,2.00
2022-12-12T23:21:02.985Z,2.30
2022-12-12T23:26:10.410Z,1.20
2022-12-12T23:31:17.576Z,4.10
2022-12-12T23:36:21.751Z,2.20
2022-12-12T23:41:25.747Z,3.60
2022-12-12T23:46:29.284Z,3.60
2022-12-12T23:51:59.607Z,3.30
2022-12-12T23:57:04.147Z,2.70
